Time;durP1;ratioP1;P1;durP2;ratioP2;P2;SDS_P1;SDS_P2;PMS_P1;PMS_P2;Temp;Humidity;BMP_temperature;BMP_pressure;BME280_temperature;BME280_humidity;BME280_pressure;Samples;Min_cycle;Max_cycle;Signal;HPM_P1;HPM_P2
2021/12/18 00:03:12;;;;;;;6.47;2.73;;;4.10;99.90;;;2.03;73.87;101268.06;10392829;28;98580;-77
2021/12/18 00:08:15;;;;;;;7.23;2.83;;;4.10;99.90;;;2.01;73.90;101272.56;10366549;28;96544;-77
2021/12/18 00:13:18;;;;;;;9.00;3.73;;;4.10;99.90;;;1.99;74.05;101271.81;10391386;28;96827;-77
2021/12/18 00:18:21;;;;;;;7.50;3.40;;;4.00;99.90;;;2.01;74.06;101274.34;10391131;28;96527;-77
2021/12/18 00:23:25;;;;;;;9.33;3.37;;;4.10;99.90;;;2.04;73.50;101288.16;10364875;28;96717;-77
2021/12/18 00:28:28;;;;;;;6.83;3.63;;;4.10;99.90;;;2.10;73.61;101300.91;10383501;28;96706;-77
2021/12/18 00:33:31;;;;;;;7.13;3.40;;;4.10;99.90;;;2.12;73.70;101313.91;10406551;28;96831;-78
2021/12/18 00:38:34;;;;;;;7.53;3.57;;;4.10;99.90;;;2.07;73.46;101314.16;10387791;28;96610;-77
2021/12/18 00:44:03;;;;;;;7.53;2.97;;;4.10;99.90;;;2.04;73.66;101318.72;10367525;28;96530;-77
2021/12/18 00:49:07;;;;;;;8.00;3.60;;;4.10;99.90;;;2.01;73.85;101326.78;10392295;28;96572;-77
2021/12/18 00:54:11;;;;;;;5.60;3.37;;;4.10;99.90;;;1.96;73.90;101337.50;10359543;28;96563;-78
2021/12/18 00:59:14;;;;;;;9.40;3.20;;;4.00;99.90;;;1.94;74.15;101335.94;10394013;28;96588;-78
2021/12/18 01:04:18;;;;;;;7.97;2.83;;;4.00;99.90;;;1.87;74.72;101333.63;10395350;28;96528;-78
2021/12/18 01:09:31;;;;;;;8.10;3.60;;;3.90;99.90;;;1.87;74.85;101344.13;10389363;28;96684;-77
2021/12/18 01:25:01;;;;;;;11.53;3.90;;;3.90;99.90;;;1.78;75.92;101349.00;10386640;28;96633;-78
2021/12/18 01:30:08;;;;;;;7.63;3.83;;;3.80;99.90;;;1.73;75.80;101361.50;10374495;28;96931;-77
2021/12/18 01:35:10;;;;;;;8.47;4.03;;;3.80;99.90;;;1.66;76.73;101368.88;10362825;28;97154;-77
2021/12/18 01:40:14;;;;;;;9.53;4.40;;;3.70;99.90;;;1.60;77.84;101382.28;10378246;28;96542;-78
2021/12/18 01:55:43;;;;;;;13.65;5.30;;;3.40;99.90;;;1.22;80.38;101390.38;10378603;28;96604;-77
2021/12/18 02:00:47;;;;;;;10.80;5.43;;;3.30;99.90;;;1.13;81.08;101382.16;10396029;28;97082;-77
2021/12/18 02:05:51;;;;;;;13.40;5.40;;;3.20;99.90;;;1.08;82.09;101387.63;10383610;28;96551;-77
2021/12/18 02:21:33;;;;;;;15.05;5.43;;;3.10;99.90;;;1.00;82.27;101381.94;10386192;28;96539;-77
2021/12/18 02:26:36;;;;;;;11.83;5.00;;;3.10;99.90;;;0.98;82.36;101386.41;10375442;28;96665;-77
2021/12/18 02:31:40;;;;;;;9.97;4.77;;;3.00;99.90;;;1.04;81.90;101383.47;10390204;28;96872;-78
2021/12/18 02:36:48;;;;;;;9.47;4.30;;;3.10;99.90;;;1.09;81.49;101381.47;10362638;28;96495;-77
2021/12/18 02:47:13;;;;;;;;;;;3.10;99.90;;;0.98;81.57;101397.72;10387708;28;98391;-77
2021/12/18 02:52:19;;;;;;;6.97;3.77;;;3.10;99.90;;;0.87;81.66;101396.56;10376860;28;96543;-78
2021/12/18 02:57:22;;;;;;;7.73;4.33;;;3.00;99.90;;;0.78;81.98;101393.50;10381243;28;96681;-78
2021/12/18 03:02:26;;;;;;;8.27;3.83;;;2.90;99.90;;;0.73;81.69;101386.78;10396229;28;96730;-79
2021/12/18 03:07:30;;;;;;;10.57;4.30;;;2.80;99.90;;;0.67;81.58;101390.56;10366396;28;96591;-77
2021/12/18 03:28:32;;;;;;;11.87;4.43;;;2.90;99.90;;;1.00;80.50;101426.41;10380651;28;96640;-77
2021/12/18 03:33:35;;;;;;;10.40;4.23;;;3.00;99.90;;;1.10;79.28;101427.66;10356365;28;96745;-77
2021/12/18 03:38:38;;;;;;;6.10;3.87;;;3.10;99.90;;;1.16;78.83;101435.22;10373144;28;97040;-78
2021/12/18 03:43:41;;;;;;;7.77;3.87;;;3.20;99.90;;;1.14;78.20;101431.84;10374488;28;97705;-78
2021/12/18 03:48:44;;;;;;;9.77;4.13;;;3.20;99.90;;;1.14;78.27;101423.97;10372484;28;97271;-77
2021/12/18 03:53:47;;;;;;;8.83;3.27;;;3.20;99.90;;;1.19;77.85;101440.28;10356476;28;96611;-77
2021/12/18 03:58:50;;;;;;;12.77;4.20;;;3.20;99.90;;;1.19;77.82;101440.28;10391027;28;96874;-78
2021/12/18 04:03:53;;;;;;;8.03;3.97;;;3.30;99.90;;;1.10;77.67;101440.75;10376058;28;96649;-78
2021/12/18 04:08:57;;;;;;;8.23;4.00;;;3.20;99.90;;;0.86;77.77;101436.75;10353225;28;96533;-78
2021/12/18 04:14:02;;;;;;;8.93;4.10;;;3.00;99.90;;;0.69;79.33;101422.72;10340954;28;97352;-78
2021/12/18 04:19:06;;;;;;;11.33;4.43;;;2.80;99.90;;;0.58;80.15;101438.06;10363422;28;96978;-78
2021/12/18 04:24:09;;;;;;;9.87;4.40;;;2.70;99.90;;;0.50;81.15;101443.69;10366183;28;96474;-78
2021/12/18 04:29:12;;;;;;;13.03;4.67;;;2.70;99.90;;;0.44;81.39;101437.91;10381338;28;98381;-78
2021/12/18 04:34:15;;;;;;;8.30;3.90;;;2.60;99.90;;;0.37;81.48;101447.78;10403388;28;96630;-78
2021/12/18 04:39:18;;;;;;;10.50;4.73;;;2.50;99.90;;;0.27;81.32;101449.13;10393209;28;96617;-78
2021/12/18 04:44:21;;;;;;;10.17;4.60;;;2.40;99.90;;;0.20;81.35;101464.25;10399142;28;96558;-78
2021/12/18 04:49:24;;;;;;;8.93;4.13;;;2.40;99.90;;;0.15;81.73;101475.84;10386515;28;96551;-78
2021/12/18 04:54:27;;;;;;;8.50;3.73;;;2.30;99.90;;;0.11;82.02;101482.97;10367614;28;96545;-78
2021/12/18 04:59:30;;;;;;;9.37;4.60;;;2.20;99.90;;;0.09;82.00;101487.44;10376905;28;96759;-78
2021/12/18 05:04:33;;;;;;;7.67;4.00;;;2.20;99.90;;;0.06;82.12;101503.25;10380525;28;96541;-78
2021/12/18 05:09:38;;;;;;;8.43;4.57;;;2.20;99.90;;;0.05;82.72;101516.38;10354238;28;97367;-78
2021/12/18 05:14:41;;;;;;;8.20;3.93;;;2.20;99.90;;;0.04;82.32;101520.75;10383936;28;96604;-77
2021/12/18 05:19:44;;;;;;;9.53;4.50;;;2.20;99.90;;;0.02;82.57;101533.06;10395775;28;96823;-77
2021/12/18 05:24:47;;;;;;;11.37;4.37;;;2.10;99.90;;;0.04;82.29;101519.91;10388327;28;98126;-77
2021/12/18 05:29:52;;;;;;;15.00;6.00;;;2.10;99.90;;;0.03;82.03;101519.06;10365694;28;97971;-77
2021/12/18 05:34:55;;;;;;;11.07;5.27;;;2.20;99.90;;;-0.02;81.96;101519.25;10370616;28;97749;-77
2021/12/18 05:39:59;;;;;;;11.80;4.73;;;2.10;99.90;;;-0.06;81.98;101517.72;10364103;28;96990;-78
2021/12/18 05:45:04;;;;;;;9.77;4.80;;;2.10;99.90;;;-0.07;81.67;101523.00;10379333;28;96510;-77
2021/12/18 05:50:08;;;;;;;12.80;6.10;;;2.10;99.90;;;-0.05;81.38;101531.63;10395296;28;96506;-78
2021/12/18 05:55:12;;;;;;;8.83;4.60;;;2.10;99.90;;;-0.04;81.12;101539.41;10396163;28;97998;-77
2021/12/18 06:00:16;;;;;;;11.90;4.73;;;2.10;99.90;;;-0.05;80.53;101552.53;10367175;28;96598;-77
2021/12/18 06:05:19;;;;;;;12.53;6.57;;;2.10;99.90;;;-0.07;80.64;101544.75;10381536;28;96939;-78
2021/12/18 06:10:28;;;;;;;17.20;8.97;;;2.10;99.90;;;-0.08;80.02;101543.06;10391345;28;96606;-78
2021/12/18 06:15:32;;;;;;;23.60;11.70;;;2.10;99.90;;;-0.10;80.11;101549.28;10378680;28;98414;-78
2021/12/18 06:20:35;;;;;;;13.93;5.57;;;2.10;99.90;;;-0.13;79.71;101570.28;10372159;28;98368;-77
2021/12/18 06:25:38;;;;;;;27.17;12.47;;;2.00;99.90;;;-0.10;79.42;101570.19;10367587;28;96549;-77
2021/12/18 06:30:41;;;;;;;15.47;8.37;;;2.10;99.90;;;-0.13;79.35;101562.44;10399507;28;97279;-78
2021/12/18 06:35:44;;;;;;;11.27;4.13;;;2.00;99.90;;;-0.12;78.79;101561.53;10381365;28;96738;-77
2021/12/18 06:40:47;;;;;;;38.93;18.97;;;2.00;99.90;;;-0.14;78.82;101579.91;10391795;28;98552;-77
2021/12/18 06:45:50;;;;;;;157.57;60.77;;;2.10;99.90;;;-0.04;78.54;101577.75;10377095;28;96611;-77
2021/12/18 06:50:53;;;;;;;12.33;6.53;;;2.10;99.90;;;0.14;78.16;101587.41;10402688;28;96556;-80
2021/12/18 06:55:57;;;;;;;9.93;5.23;;;2.20;99.90;;;0.38;77.52;101590.69;10358995;28;96610;-80
2021/12/18 07:01:00;;;;;;;5.70;3.47;;;2.30;99.90;;;0.64;76.49;101579.03;10365497;28;96589;-79
2021/12/18 07:06:03;;;;;;;10.60;5.63;;;2.50;99.90;;;0.71;75.79;101580.44;10367311;28;96528;-79
2021/12/18 07:11:06;;;;;;;20.23;8.63;;;2.60;99.90;;;0.73;74.76;101576.00;10381359;28;96667;-79
2021/12/18 07:16:09;;;;;;;12.80;6.87;;;2.70;99.90;;;0.70;74.77;101556.97;10372983;28;96519;-79
2021/12/18 07:21:12;;;;;;;11.07;4.20;;;2.70;99.90;;;0.80;74.61;101563.50;10368630;28;96778;-79
2021/12/18 07:26:14;;;;;;;8.80;4.00;;;2.80;99.90;;;0.92;73.85;101567.31;10388731;28;96715;-78
2021/12/18 07:31:17;;;;;;;7.90;3.43;;;2.90;99.90;;;1.32;72.90;101582.78;10368242;28;96942;-78
2021/12/18 07:36:21;;;;;;;8.47;2.87;;;3.10;99.90;;;1.97;71.48;101590.03;10385321;28;97823;-80
2021/12/18 07:41:24;;;;;;;10.03;3.57;;;3.40;99.90;;;2.52;69.67;101595.00;10372375;28;96880;-80
2021/12/18 07:46:27;;;;;;;20.40;7.10;;;3.80;99.90;;;2.93;68.31;101611.16;10386925;28;96625;-78
2021/12/18 07:51:32;;;;;;;58.93;18.80;;;4.20;99.90;;;3.40;66.76;101608.50;10358755;28;98721;-79
2021/12/18 07:56:35;;;;;;;38.80;14.57;;;4.50;99.90;;;3.81;65.28;101615.78;10373032;28;96680;-78
2021/12/18 08:01:38;;;;;;;20.60;8.03;;;4.80;99.90;;;4.15;63.67;101605.91;10386526;28;96907;-78
2021/12/18 08:06:41;;;;;;;46.00;24.13;;;5.20;99.90;;;4.52;63.81;101607.97;10378273;28;96554;-79
2021/12/18 08:11:44;;;;;;;12.17;6.70;;;5.50;99.90;;;4.74;62.02;101604.88;10384410;28;96612;-79
2021/12/18 08:16:48;;;;;;;11.37;6.70;;;5.80;99.90;;;4.93;61.26;101609.81;10355222;28;96552;-79
2021/12/18 08:21:50;;;;;;;9.67;5.47;;;6.10;99.40;;;5.09;59.68;101614.94;10375409;28;97267;-79
2021/12/18 08:26:54;;;;;;;6.50;3.30;;;6.40;98.70;;;5.09;58.57;101614.94;10388951;28;96927;-79
2021/12/18 08:31:58;;;;;;;7.10;3.10;;;6.50;97.00;;;5.10;58.28;101620.13;10376739;28;96464;-79
2021/12/18 08:37:04;;;;;;;9.00;3.80;;;6.60;95.30;;;5.12;57.67;101619.19;10364827;28;96476;-79
2021/12/18 08:42:08;;;;;;;4.03;2.43;;;6.70;94.30;;;5.19;57.69;101609.94;10341551;28;96510;-79
2021/12/18 08:47:16;;;;;;;6.43;2.40;;;6.70;93.90;;;5.39;56.97;101622.66;10344293;28;98149;-79
2021/12/18 08:52:19;;;;;;;8.13;3.10;;;6.90;93.00;;;5.03;57.22;101631.13;10378269;28;96403;-78
2021/12/18 08:57:21;;;;;;;6.63;3.23;;;6.70;91.60;;;4.53;58.41;101641.25;10361988;28;96547;-78
2021/12/18 09:02:24;;;;;;;8.37;3.20;;;6.50;90.60;;;4.15;59.46;101637.47;10402758;28;96658;-80
2021/12/18 09:07:27;;;;;;;6.33;3.23;;;6.20;90.80;;;3.96;60.66;101621.94;10363476;28;96816;-80
2021/12/18 09:12:30;;;;;;;8.97;3.00;;;6.00;91.50;;;4.01;60.23;101617.22;10394801;28;97707;-78
2021/12/18 09:17:33;;;;;;;7.53;3.60;;;5.90;91.30;;;3.94;60.47;101614.09;10343226;28;96720;-78
2021/12/18 09:22:36;;;;;;;7.87;3.47;;;5.90;91.40;;;3.88;61.15;101614.47;10387279;28;96629;-79
2021/12/18 09:27:40;;;;;;;9.43;2.90;;;5.80;91.60;;;3.78;61.14;101612.47;10408181;28;96783;-79
2021/12/18 09:32:43;;;;;;;7.60;3.60;;;5.80;91.30;;;3.71;61.45;101602.31;10393779;28;96521;-79
2021/12/18 09:37:47;;;;;;;8.37;3.20;;;5.70;91.50;;;3.69;62.11;101629.63;10365487;28;96756;-79
2021/12/18 09:42:50;;;;;;;11.70;3.70;;;5.60;91.80;;;3.69;62.01;101619.13;10390633;28;96382;-80
2021/12/18 09:47:54;;;;;;;10.57;4.20;;;5.70;91.80;;;3.66;62.41;101614.91;10404158;28;97131;-81
2021/12/18 09:52:58;;;;;;;6.37;3.20;;;5.60;92.20;;;3.66;62.35;101612.28;10366821;28;96755;-79
2021/12/18 09:58:01;;;;;;;7.93;3.33;;;5.60;92.10;;;3.66;62.79;101609.63;10383363;28;97182;-81
2021/12/18 10:03:04;;;;;;;9.53;3.07;;;5.60;92.20;;;3.66;62.55;101625.41;10362650;28;98140;-79
2021/12/18 10:08:21;;;;;;;6.50;3.30;;;5.60;92.10;;;3.66;62.62;101616.69;10370264;28;96771;-79
2021/12/18 10:13:24;;;;;;;12.73;4.53;;;5.60;92.20;;;3.70;62.46;101631.31;10369461;28;96735;-80
2021/12/18 10:18:33;;;;;;;13.50;4.23;;;5.60;92.20;;;3.71;62.34;101633.00;10387619;28;96698;-80
2021/12/18 10:23:37;;;;;;;64.83;12.30;;;5.70;92.20;;;3.72;62.54;101625.06;10392845;28;96484;-79
2021/12/18 10:28:45;;;;;;;17.07;7.13;;;5.70;92.20;;;3.90;63.16;101609.13;10378033;28;96975;-78
2021/12/18 10:33:48;;;;;;;17.17;7.17;;;5.80;92.90;;;4.14;62.20;101591.91;10381395;28;96612;-79
2021/12/18 10:38:54;;;;;;;8.97;4.07;;;6.00;92.10;;;4.45;61.46;101580.34;10355804;28;96588;-79
2021/12/18 10:44:09;;;;;;;6.20;3.13;;;6.30;92.40;;;4.75;60.36;101574.94;10384479;28;96621;-79
2021/12/18 10:49:21;;;;;;;5.27;2.63;;;6.50;91.90;;;4.99;58.98;101574.34;10376879;28;96968;-79
2021/12/18 10:54:26;;;;;;;6.40;3.23;;;6.80;90.90;;;5.09;58.98;101568.34;10374817;28;96895;-79
2021/12/18 10:59:36;;;;;;;4.50;2.20;;;6.90;88.90;;;5.13;58.54;101562.91;10354664;28;96694;-78
2021/12/18 11:04:40;;;;;;;4.90;2.40;;;7.00;88.80;;;5.11;58.52;101539.28;10397722;28;96708;-79
2021/12/18 11:09:49;;;;;;;7.43;3.07;;;6.90;90.10;;;5.18;57.87;101526.56;10361088;28;97240;-78
2021/12/18 11:14:52;;;;;;;4.33;2.63;;;7.00;89.60;;;5.28;57.68;101525.00;10381159;28;96495;-79
2021/12/18 11:19:55;;;;;;;6.30;2.13;;;7.10;89.10;;;5.36;57.27;101522.69;10375378;28;96581;-78
2021/12/18 11:25:08;;;;;;;6.30;2.30;;;7.20;88.60;;;5.40;57.21;101508.38;10377321;28;96796;-78
2021/12/18 11:30:14;;;;;;;6.67;2.43;;;7.30;86.70;;;5.44;57.16;101501.94;10388423;28;97454;-78
2021/12/18 11:35:23;;;;;;;5.67;2.60;;;7.30;86.70;;;5.37;56.72;101509.41;10377631;28;96673;-78
2021/12/18 11:40:31;;;;;;;6.40;2.80;;;7.20;85.80;;;5.31;57.19;101493.16;10368344;28;96494;-78
2021/12/18 11:45:36;;;;;;;5.57;2.70;;;7.20;86.40;;;5.27;56.83;101484.59;10349444;28;96659;-79
2021/12/18 11:50:39;;;;;;;5.37;2.80;;;7.20;85.70;;;5.18;56.68;101481.75;10371636;28;96593;-78
2021/12/18 11:55:57;;;;;;;4.93;2.53;;;7.10;85.00;;;5.08;57.21;101484.97;10384551;28;96618;-79
2021/12/18 12:01:11;;;;;;;7.10;2.87;;;7.00;84.60;;;5.02;57.49;101489.81;10367837;28;96596;-79
2021/12/18 12:06:37;;;;;;;5.40;2.63;;;6.90;85.40;;;5.01;58.07;101488.97;10394172;28;96528;-79
2021/12/18 12:11:51;;;;;;;7.53;2.87;;;6.90;85.10;;;5.00;57.82;101483.81;10372121;28;96597;-79
2021/12/18 12:17:07;;;;;;;4.23;2.20;;;6.90;85.50;;;4.93;58.38;101499.19;10383370;28;96625;-78
2021/12/18 12:22:42;;;;;;;5.73;2.30;;;6.80;85.20;;;4.92;58.37;101484.31;10390039;28;96525;-78
2021/12/18 12:28:00;;;;;;;4.67;2.50;;;6.80;86.00;;;4.98;58.58;101483.94;10379080;28;98228;-78
2021/12/18 12:33:07;;;;;;;6.47;2.63;;;6.90;86.30;;;4.99;58.63;101493.50;10340116;28;96887;-78
2021/12/18 12:38:28;;;;;;;6.77;2.60;;;6.90;86.40;;;5.02;59.07;101503.84;10355974;28;96468;-78
2021/12/18 12:43:39;;;;;;;6.37;2.90;;;6.90;86.50;;;5.06;58.90;101484.25;10371482;28;96735;-78
2021/12/18 12:49:11;;;;;;;5.47;2.47;;;7.00;87.00;;;5.02;58.80;101469.59;10387550;28;96590;-78
2021/12/18 12:54:59;;;;;;;7.70;3.60;;;6.90;85.90;;;4.89;59.05;101466.06;10379099;28;96534;-79
2021/12/18 13:00:06;;;;;;;5.60;2.97;;;6.90;85.80;;;4.82;59.50;101463.00;10371657;28;96571;-78
2021/12/18 13:05:12;;;;;;;10.53;4.40;;;6.80;86.80;;;4.67;59.89;101432.38;10388575;28;96841;-79
2021/12/18 13:10:38;;;;;;;8.87;4.43;;;6.60;87.80;;;4.58;60.06;101430.34;10355555;28;96773;-78
2021/12/18 13:16:11;;;;;;;11.83;5.03;;;6.60;87.80;;;4.47;59.93;101441.56;10382354;28;97373;-78
2021/12/18 13:21:26;;;;;;;9.83;3.80;;;6.50;87.40;;;4.38;60.47;101446.56;10385994;28;96982;-78
2021/12/18 13:26:36;;;;;;;6.93;4.17;;;6.40;87.70;;;4.27;60.93;101442.00;10379211;28;96869;-78
2021/12/18 13:31:54;;;;;;;7.57;3.60;;;6.30;88.10;;;4.15;60.87;101437.53;10367840;28;96581;-78
2021/12/18 13:37:05;;;;;;;7.53;3.50;;;6.20;88.00;;;4.02;60.59;101440.91;10392109;28;97120;-78
2021/12/18 13:42:18;;;;;;;10.02;4.00;;;6.00;87.90;;;3.93;61.34;101438.84;10367823;28;96883;-78
2021/12/18 13:47:28;;;;;;;5.60;3.07;;;5.90;88.50;;;3.84;61.54;101433.28;10355479;28;98255;-78
2021/12/18 13:52:39;;;;;;;6.27;3.67;;;5.80;88.80;;;3.76;61.54;101432.00;10385830;28;96558;-78
2021/12/18 13:58:07;;;;;;;6.40;3.60;;;5.80;88.80;;;3.67;62.19;101437.81;10379883;28;97066;-78
2021/12/18 14:03:25;;;;;;;7.10;4.07;;;5.70;89.80;;;3.60;62.78;101433.88;10395467;28;96550;-80
2021/12/18 14:08:29;;;;;;;6.33;4.07;;;5.60;90.10;;;3.52;63.24;101435.25;10387555;28;98856;-78
2021/12/18 14:14:10;;;;;;;9.63;4.37;;;5.50;90.40;;;3.45;62.98;101424.28;10389160;28;96710;-78
2021/12/18 14:19:13;;;;;;;12.90;4.93;;;5.50;90.30;;;3.40;63.22;101424.53;10349911;28;96727;-78
2021/12/18 14:24:19;;;;;;;9.10;4.57;;;5.40;90.60;;;3.35;63.68;101413.47;10379286;28;97505;-80
2021/12/18 14:29:23;;;;;;;8.50;4.60;;;5.30;90.80;;;3.28;64.08;101399.00;10377154;28;96568;-79
2021/12/18 14:34:34;;;;;;;10.90;4.70;;;5.30;91.30;;;3.25;63.96;101399.22;10364088;28;98793;-79
2021/12/18 14:39:44;;;;;;;10.07;4.57;;;5.20;91.20;;;3.21;64.60;101397.69;10392623;28;96621;-79
2021/12/18 14:44:55;;;;;;;9.40;4.20;;;5.20;91.40;;;3.15;64.44;101401.53;10390662;28;96995;-79
2021/12/18 14:50:14;;;;;;;16.53;4.80;;;5.20;91.60;;;3.12;64.56;101399.09;10380496;28;96575;-79
2021/12/18 14:55:35;;;;;;;20.97;8.73;;;5.10;91.60;;;3.09;64.55;101382.66;10346621;28;96701;-80
2021/12/18 15:01:08;;;;;;;12.43;5.50;;;5.10;91.80;;;3.05;64.89;101375.88;10368293;28;97302;-89
2021/12/18 15:06:19;;;;;;;10.60;5.63;;;5.10;91.80;;;3.02;65.23;101370.84;10381941;28;96690;-85
2021/12/18 15:11:28;;;;;;;26.35;11.32;;;5.10;92.00;;;2.99;65.17;101365.75;10369536;28;96636;-85
2021/12/18 15:16:38;;;;;;;11.90;6.17;;;5.00;92.10;;;2.94;65.36;101361.63;10376937;28;98012;-78
2021/12/18 15:21:45;;;;;;;13.27;7.77;;;5.00;92.30;;;2.91;65.55;101356.53;10376041;28;96798;-78
2021/12/18 15:26:52;;;;;;;9.67;4.93;;;4.90;92.30;;;2.89;65.47;101350.56;10401884;28;96507;-78
2021/12/18 15:31:55;;;;;;;10.17;4.90;;;4.90;92.40;;;2.89;65.39;101344.47;10408147;27;96620;-78
2021/12/18 15:37:08;;;;;;;8.70;4.43;;;4.90;92.50;;;2.87;65.57;101351.56;10355564;28;96653;-78
2021/12/18 15:42:21;;;;;;;34.33;15.07;;;4.90;92.60;;;2.83;66.03;101350.91;10372413;28;98177;-78
2021/12/18 15:47:24;;;;;;;17.33;7.33;;;4.90;92.70;;;2.79;66.10;101349.41;10377306;28;97066;-78
2021/12/18 15:52:27;;;;;;;10.17;5.30;;;4.90;93.00;;;2.77;66.42;101340.78;10396753;28;96572;-79
2021/12/18 15:57:30;;;;;;;20.00;9.00;;;4.90;93.00;;;2.76;66.77;101344.34;10365737;28;97879;-78
2021/12/18 16:02:33;;;;;;;19.83;8.73;;;4.90;93.30;;;2.72;67.15;101331.47;10354182;28;96874;-78
2021/12/18 16:07:37;;;;;;;28.87;13.27;;;4.80;93.60;;;2.68;67.38;101331.63;10362681;28;96602;-78
2021/12/18 16:12:40;;;;;;;11.97;6.50;;;4.80;93.70;;;2.67;67.41;101331.75;10346390;28;96824;-78
2021/12/18 16:17:43;;;;;;;20.20;9.53;;;4.80;93.80;;;2.67;67.60;101334.38;10407523;28;96727;-78
2021/12/18 16:22:47;;;;;;;12.07;6.20;;;4.80;93.90;;;2.63;67.80;101328.44;10372540;28;96513;-78
2021/12/18 16:27:51;;;;;;;16.00;7.50;;;4.70;94.00;;;2.62;68.37;101325.91;10372005;28;96573;-78
2021/12/18 16:32:54;;;;;;;23.27;10.40;;;4.70;94.30;;;2.58;68.16;101316.50;10393675;28;96575;-78
2021/12/18 16:38:09;;;;;;;29.10;12.93;;;4.70;94.30;;;2.54;68.52;101313.25;10389343;28;96450;-78
2021/12/18 16:43:14;;;;;;;34.20;16.20;;;4.70;94.50;;;2.50;68.33;101303.00;10381058;28;96624;-78
2021/12/18 16:48:19;;;;;;;135.93;49.50;;;4.60;94.50;;;2.47;68.66;101295.31;10353618;28;97095;-78
2021/12/18 16:53:24;;;;;;;78.37;28.33;;;4.60;94.70;;;2.47;68.50;101296.16;10375347;28;96904;-78
2021/12/18 16:58:26;;;;;;;28.03;12.20;;;4.60;94.70;;;2.48;68.76;101278.66;10363158;28;96642;-78
2021/12/18 17:03:40;;;;;;;63.03;25.57;;;4.50;95.00;;;2.49;68.50;101270.69;10363164;28;96685;-78
2021/12/18 17:08:43;;;;;;;27.23;11.43;;;4.50;95.10;;;2.47;68.53;101267.31;10362618;28;96616;-78
2021/12/18 17:13:46;;;;;;;22.70;10.10;;;4.50;95.30;;;2.49;68.65;101259.34;10362303;28;97626;-78
2021/12/18 17:18:49;;;;;;;10.67;5.87;;;4.50;95.40;;;2.49;68.37;101272.47;10386553;28;98591;-78
2021/12/18 17:23:52;;;;;;;11.23;5.83;;;4.50;95.50;;;2.51;68.46;101262.72;10386126;28;96558;-78
2021/12/18 17:28:55;;;;;;;10.67;4.77;;;4.50;95.60;;;2.50;69.10;101246.13;10345169;28;96465;-78
2021/12/18 17:34:02;;;;;;;7.73;4.30;;;4.60;95.90;;;2.49;69.41;101238.34;10367048;28;98504;-78
2021/12/18 17:39:05;;;;;;;17.77;6.73;;;4.50;96.00;;;2.48;69.37;101252.41;10361467;28;96614;-76
2021/12/18 17:44:08;;;;;;;8.37;4.63;;;4.50;96.10;;;2.45;69.83;101239.47;10360112;28;96545;-78
2021/12/18 17:49:11;;;;;;;13.50;5.30;;;4.50;96.50;;;2.40;69.94;101227.47;10414577;28;96554;-78
2021/12/18 17:54:14;;;;;;;12.90;5.23;;;4.50;96.60;;;2.39;70.13;101230.16;10403688;28;96453;-78
2021/12/18 17:59:17;;;;;;;10.87;5.27;;;4.50;96.70;;;2.35;70.28;101226.06;10420004;28;96764;-78
2021/12/18 18:04:20;;;;;;;14.47;6.10;;;4.50;96.90;;;2.29;70.44;101224.63;10369228;28;96610;-78
2021/12/18 18:09:30;;;;;;;14.67;6.00;;;4.40;97.00;;;2.23;70.84;101224.16;10384699;28;96572;-78
2021/12/18 18:14:33;;;;;;;11.70;5.67;;;4.30;97.00;;;2.19;71.24;101226.09;10419058;28;96578;-78
2021/12/18 18:19:36;;;;;;;16.20;7.57;;;4.30;97.50;;;2.18;71.24;101224.41;10401836;28;97086;-78
2021/12/18 18:24:39;;;;;;;18.87;7.77;;;4.30;97.60;;;2.19;71.13;101218.22;10399423;28;96548;-78
2021/12/18 18:29:42;;;;;;;12.73;6.90;;;4.30;97.70;;;2.23;71.17;101204.00;10400720;28;96824;-78
2021/12/18 18:34:45;;;;;;;10.57;5.37;;;4.30;97.90;;;2.31;71.12;101186.03;10391540;28;96716;-78
2021/12/18 18:39:48;;;;;;;10.43;5.30;;;4.30;98.10;;;2.36;70.74;101178.75;10343165;28;96549;-78
2021/12/18 18:44:57;;;;;;;8.40;4.50;;;4.40;98.20;;;2.44;70.14;101162.53;10359462;28;96624;-78
2021/12/18 18:50:03;;;;;;;9.77;4.73;;;4.40;98.00;;;2.52;69.95;101167.31;10401703;28;96468;-78
2021/12/18 18:55:08;;;;;;;11.30;4.87;;;4.50;97.90;;;2.57;69.75;101157.38;10381630;28;96831;-78
2021/12/18 19:00:13;;;;;;;7.33;4.60;;;4.50;97.80;;;2.63;69.63;101147.34;10377051;28;97869;-78
2021/12/18 19:05:17;;;;;;;12.23;4.70;;;4.50;97.80;;;2.67;69.43;101132.28;10387382;28;97488;-78
2021/12/18 19:10:20;;;;;;;12.63;4.33;;;4.60;97.70;;;2.73;69.11;101139.78;10399794;28;96535;-78
2021/12/18 19:15:23;;;;;;;10.70;4.83;;;4.60;97.50;;;2.75;69.15;101132.63;10381867;28;96658;-78
2021/12/18 19:20:29;;;;;;;10.10;4.40;;;4.70;97.60;;;2.77;69.28;101119.44;10357856;28;96669;-78
2021/12/18 19:25:32;;;;;;;7.67;4.87;;;4.70;97.50;;;2.80;69.02;101133.19;10356846;28;96993;-78
2021/12/18 19:30:35;;;;;;;7.63;4.20;;;4.70;97.50;;;2.83;69.58;101124.31;10415275;28;96521;-78
2021/12/18 19:35:40;;;;;;;11.80;6.43;;;4.70;97.90;;;2.87;69.98;101117.91;10369017;28;96985;-79
2021/12/18 19:40:44;;;;;;;8.27;5.03;;;4.80;98.30;;;2.92;70.17;101107.97;10379550;28;97234;-78
2021/12/18 19:45:47;;;;;;;7.80;4.50;;;4.90;98.30;;;2.95;70.23;101108.63;10365306;28;98004;-79
2021/12/18 19:50:50;;;;;;;10.37;4.70;;;4.90;98.70;;;2.95;70.55;101092.88;10370891;28;96561;-79
2021/12/18 19:55:53;;;;;;;11.17;4.53;;;4.90;98.70;;;2.98;70.32;101093.59;10389927;28;96564;-79
2021/12/18 20:00:57;;;;;;;9.90;4.90;;;4.90;98.60;;;2.98;70.57;101085.72;10371321;28;96895;-78
2021/12/18 20:06:00;;;;;;;10.80;5.50;;;4.90;98.90;;;2.97;70.75;101079.63;10371733;28;96592;-79
2021/12/18 20:11:03;;;;;;;10.50;4.27;;;4.90;99.50;;;2.94;71.45;101061.47;10351965;28;96557;-79
2021/12/18 20:16:08;;;;;;;10.17;5.23;;;4.90;99.60;;;2.95;71.30;101077.13;10386822;28;99069;-78
2021/12/18 20:21:11;;;;;;;9.93;5.07;;;4.90;99.40;;;3.04;69.72;101067.81;10372544;28;97519;-79
2021/12/18 20:26:14;;;;;;;15.13;5.07;;;4.90;98.50;;;3.08;70.79;101055.31;10363094;28;97971;-79
2021/12/18 20:31:17;;;;;;;11.37;5.60;;;5.00;99.70;;;3.03;71.76;101062.66;10366449;28;96524;-79
2021/12/18 20:36:20;;;;;;;13.57;7.07;;;4.90;99.90;;;2.98;72.86;101047.19;10371444;28;96616;-79
2021/12/18 20:41:23;;;;;;;13.57;6.47;;;4.90;99.90;;;2.90;73.56;101031.09;10358267;28;96536;-78
2021/12/18 20:46:26;;;;;;;12.37;5.67;;;4.80;99.90;;;2.83;74.81;101028.03;10375224;28;96590;-79
2021/12/18 20:51:33;;;;;;;12.47;6.20;;;4.80;99.90;;;2.75;76.09;101022.41;10375037;28;97087;-79
2021/12/18 20:56:37;;;;;;;13.07;6.53;;;4.70;99.90;;;2.69;76.72;101028.03;10394393;28;96935;-80
2021/12/18 21:01:42;;;;;;;11.10;5.50;;;4.60;99.90;;;2.64;77.06;101024.88;10359069;28;96582;-79
2021/12/18 21:06:48;;;;;;;15.03;6.23;;;4.60;99.90;;;2.58;77.96;101020.00;10378425;28;96511;-79
2021/12/18 21:11:51;;;;;;;10.20;5.73;;;4.50;99.90;;;2.53;78.50;101007.19;10365757;28;98088;-79
2021/12/18 21:16:57;;;;;;;10.37;5.83;;;4.50;99.90;;;2.53;78.74;101011.59;10365254;28;98520;-79
2021/12/18 21:22:02;;;;;;;10.83;6.33;;;4.50;99.90;;;2.51;79.38;101003.81;10382072;28;97500;-83
2021/12/18 21:27:05;;;;;;;11.03;6.10;;;4.50;99.90;;;2.54;79.18;101021.16;10360795;28;96739;-79
2021/12/18 21:32:09;;;;;;;17.47;7.73;;;4.50;99.90;;;2.54;79.43;101006.25;10361635;28;97739;-79
2021/12/18 21:37:12;;;;;;;16.47;7.73;;;4.60;99.90;;;2.55;79.84;101004.47;10411386;27;97554;-79
2021/12/18 21:42:18;;;;;;;18.97;9.50;;;4.60;99.90;;;2.54;80.28;100992.28;10385108;28;96523;-79
2021/12/18 21:47:21;;;;;;;16.13;7.70;;;4.50;99.90;;;2.52;80.33;100994.16;10368657;28;96578;-79
2021/12/18 21:52:27;;;;;;;14.10;7.57;;;4.50;99.90;;;2.55;80.12;100983.47;10401676;28;96740;-79
2021/12/18 21:57:30;;;;;;;14.07;6.23;;;4.50;99.90;;;2.59;79.75;100979.72;10404081;28;96581;-78
2021/12/18 22:02:33;;;;;;;14.40;7.17;;;4.60;99.90;;;2.67;78.94;100967.78;10376218;28;97017;-79
2021/12/18 22:07:36;;;;;;;12.63;6.70;;;4.60;99.90;;;2.72;78.93;100954.38;10367861;28;97454;-79
2021/12/18 22:12:39;;;;;;;11.77;6.77;;;4.70;99.90;;;2.79;78.22;100949.56;10381295;28;96693;-79